Time,TemperatureF,DewpointF,PressureIn,WindDirection,WindDirectionDegrees,WindSpeedMPH,WindSpeedGustMPH,Humidity,HourlyPrecipIn,Conditions,Clouds,dailyrainin,SoftwareType,DateUTC
2013-04-08 00:00:00,37.6,31.4,29.77,ENE,68,3.4,3.4,78,0.11,,,0.00,WUHU216HW,2013-04-08 05:00:00,
2013-04-08 00:05:00,37.6,31.4,29.77,ENE,68,3.4,3.4,78,0.10,,,0.00,WUHU216HW,2013-04-08 05:05:00,
2013-04-08 00:30:00,37.4,31.5,29.76,East,90,2.2,2.2,79,0.12,,,0.00,WUHU216HW,2013-04-08 05:30:00,
2013-04-08 00:35:00,37.4,31.5,29.76,NE,45,3.1,3.1,79,0.12,,,0.07,WUHU216HW,2013-04-08 05:35:00,
2013-04-08 00:36:00,37.4,31.5,29.76,NE,45,3.1,3.1,79,0.12,,,0.07,WUHU216HW,2013-04-08 05:36:00,
2013-04-08 00:40:00,37.4,31.5,29.76,NE,45,3.1,3.1,79,0.12,,,0.07,WUHU216HW,2013-04-08 05:40:00,
2013-04-08 01:00:00,37.4,31.5,29.75,East,90,2.2,2.2,79,0.15,,,0.07,WUHU216HW,2013-04-08 06:00:00,
2013-04-08 01:05:00,37.4,31.5,29.75,SSE,158,2.5,2.5,79,0.15,,,0.15,WUHU216HW,2013-04-08 06:05:00,
2013-04-08 01:06:00,37.4,31.5,29.75,SSE,158,2.5,2.5,79,0.15,,,0.15,WUHU216HW,2013-04-08 06:06:00,
2013-04-08 01:30:00,37.6,31.7,29.74,ENE,68,1.8,1.8,79,0.10,,,0.15,WUHU216HW,2013-04-08 06:30:00,
2013-04-08 01:35:00,37.6,31.7,29.74,North,0,2.2,2.2,79,0.10,,,0.18,WUHU216HW,2013-04-08 06:35:00,
2013-04-08 01:40:00,37.6,31.7,29.74,North,0,2.2,2.2,79,0.10,,,0.18,WUHU216HW,2013-04-08 06:40:00,
2013-04-08 02:00:00,37.8,32.2,29.74,ENE,68,1.1,1.1,80,0.05,,,0.18,WUHU216HW,2013-04-08 07:00:00,
2013-04-08 02:05:00,37.8,32.2,29.74,ENE,68,2.0,2.0,80,0.05,,,0.20,WUHU216HW,2013-04-08 07:05:00,
2013-04-08 02:10:00,37.8,32.2,29.74,ENE,68,2.0,2.0,80,0.05,,,0.20,WUHU216HW,2013-04-08 07:10:00,
2013-04-08 02:30:00,37.8,32.2,29.73,ENE,68,1.8,1.8,80,0.03,,,0.20,WUHU216HW,2013-04-08 07:30:00,
2013-04-08 02:31:00,37.8,32.2,29.73,ENE,68,1.8,1.8,80,0.03,,,0.21,WUHU216HW,2013-04-08 07:31:00,
2013-04-08 02:35:00,37.8,32.2,29.73,ENE,68,1.8,1.8,80,0.03,,,0.21,WUHU216HW,2013-04-08 07:35:00,
2013-04-08 02:36:00,37.8,32.2,29.73,ENE,68,1.8,1.8,80,0.03,,,0.21,WUHU216HW,2013-04-08 07:36:00,
2013-04-08 03:00:00,37.8,32.2,29.71,East,90,1.8,1.8,80,0.01,,,0.21,WUHU216HW,2013-04-08 08:00:00,
2013-04-08 03:05:00,37.8,32.2,29.71,East,90,1.8,1.8,80,0.01,,,0.21,WUHU216HW,2013-04-08 08:05:00,
2013-04-08 03:30:00,37.8,32.5,29.71,NNE,23,1.6,1.6,81,0.00,,,0.21,WUHU216HW,2013-04-08 08:30:00,
2013-04-08 03:35:00,37.8,32.5,29.71,NE,45,1.1,1.6,81,0.00,,,0.21,WUHU216HW,2013-04-08 08:35:00,
2013-04-08 03:36:00,37.8,32.5,29.71,NE,45,1.1,1.6,81,0.00,,,0.21,WUHU216HW,2013-04-08 08:36:00,
2013-04-08 03:40:00,37.8,32.5,29.71,NE,45,1.1,1.1,81,0.00,,,0.21,WUHU216HW,2013-04-08 08:40:00,
2013-04-08 04:00:00,37.6,32.3,29.71,NNE,23,4.9,4.9,81,0.00,,,0.21,WUHU216HW,2013-04-08 09:00:00,
2013-04-08 04:01:00,37.6,32.3,29.71,NNE,13,5.8,7.6,81,0.00,,,0.21,WUHU216HW,2013-04-08 09:01:00,
2013-04-08 04:05:00,37.6,32.3,29.71,NNE,23,4.9,7.6,81,0.00,,,0.21,WUHU216HW,2013-04-08 09:05:00,
2013-04-08 04:06:00,37.6,32.3,29.71,NNE,23,4.9,7.6,81,0.00,,,0.21,WUHU216HW,2013-04-08 09:06:00,
2013-04-08 04:10:00,37.6,32.3,29.71,NNE,23,4.9,7.6,81,0.00,,,0.21,WUHU216HW,2013-04-08 09:10:00,
2013-04-08 04:30:00,37.4,32.1,29.71,NNE,23,2.2,2.2,81,0.03,,,0.21,WUHU216HW,2013-04-08 09:30:00,
2013-04-08 04:35:00,37.3,32.0,29.71,NNE,23,2.0,2.2,81,0.03,,,0.24,WUHU216HW,2013-04-08 09:35:00,
2013-04-08 04:36:00,37.3,32.0,29.71,NNE,23,2.0,2.2,81,0.03,,,0.24,WUHU216HW,2013-04-08 09:36:00,
2013-04-08 04:40:00,37.3,32.0,29.71,NNE,23,2.0,2.0,81,0.03,,,0.24,WUHU216HW,2013-04-08 09:40:00,
2013-04-08 05:00:00,37.1,32.0,29.70,North,0,5.6,5.6,82,0.08,,,0.24,WUHU216HW,2013-04-08 10:00:00,
2013-04-08 05:05:00,37.1,32.0,29.70,North,0,6.7,6.7,82,0.08,,,0.29,WUHU216HW,2013-04-08 10:05:00,
2013-04-08 05:10:00,37.1,32.0,29.70,North,0,6.7,6.7,82,0.08,,,0.29,WUHU216HW,2013-04-08 10:10:00,
2013-04-08 05:30:00,36.9,31.9,29.70,North,0,7.8,7.8,82,0.06,,,0.29,WUHU216HW,2013-04-08 10:30:00,
2013-04-08 05:35:00,36.9,31.9,29.70,North,0,7.8,7.8,82,0.06,,,0.31,WUHU216HW,2013-04-08 10:35:00,
2013-04-08 06:00:00,36.5,31.5,29.69,NNE,23,6.9,6.9,82,0.01,,,0.31,WUHU216HW,2013-04-08 11:00:00,
2013-04-08 06:05:00,36.7,31.7,29.69,North,0,5.1,6.9,82,0.01,,,0.31,WUHU216HW,2013-04-08 11:05:00,
2013-04-08 06:30:00,36.5,31.5,29.69,NE,45,5.6,5.6,82,0.00,,,0.31,WUHU216HW,2013-04-08 11:30:00,
2013-04-08 06:35:00,36.5,31.5,29.69,NE,45,5.4,5.6,82,0.00,,,0.31,WUHU216HW,2013-04-08 11:35:00,
2013-04-08 06:40:00,36.5,31.5,29.69,NE,45,5.4,5.4,82,0.00,,,0.31,WUHU216HW,2013-04-08 11:40:00,
2013-04-08 07:00:00,36.7,32.1,29.70,North,0,5.4,5.4,83,0.01,,,0.31,WUHU216HW,2013-04-08 12:00:00,
2013-04-08 07:05:00,36.7,32.1,29.70,North,0,6.5,6.9,83,0.01,,,0.31,WUHU216HW,2013-04-08 12:05:00,
2013-04-08 07:10:00,36.7,32.1,29.70,North,0,6.5,6.9,83,0.01,,,0.31,WUHU216HW,2013-04-08 12:10:00,
2013-04-08 07:30:00,36.9,32.2,29.71,NE,45,6.9,6.9,83,0.00,,,0.31,WUHU216HW,2013-04-08 12:30:00,
2013-04-08 07:35:00,36.9,32.2,29.71,NNE,23,5.4,6.9,83,0.00,,,0.31,WUHU216HW,2013-04-08 12:35:00,
2013-04-08 07:40:00,36.9,32.2,29.71,NNE,23,5.4,6.9,83,0.00,,,0.31,WUHU216HW,2013-04-08 12:40:00,
2013-04-08 08:00:00,37.1,32.0,29.72,North,0,6.9,6.9,82,0.00,,,0.31,WUHU216HW,2013-04-08 13:00:00,
2013-04-08 08:05:00,37.1,32.4,29.72,NE,45,5.1,6.9,83,0.00,,,0.31,WUHU216HW,2013-04-08 13:05:00,
2013-04-08 08:30:00,37.3,32.2,29.73,North,0,4.5,4.5,82,0.00,,,0.31,WUHU216HW,2013-04-08 13:30:00,
2013-04-08 08:31:00,37.3,32.2,29.73,North,0,4.5,4.5,82,0.00,,,0.31,WUHU216HW,2013-04-08 13:31:00,
2013-04-08 08:32:00,37.3,32.2,29.73,North,0,4.5,4.5,82,0.00,,,0.31,WUHU216HW,2013-04-08 13:32:00,
2013-04-08 08:35:00,37.3,32.2,29.73,North,0,4.5,4.5,82,0.00,,,0.31,WUHU216HW,2013-04-08 13:35:00,
2013-04-08 08:37:00,37.3,32.2,29.73,North,0,4.5,4.5,82,0.00,,,0.31,WUHU216HW,2013-04-08 13:37:00,
2013-04-08 08:40:00,37.3,32.2,29.73,North,0,4.5,4.5,82,0.00,,,0.31,WUHU216HW,2013-04-08 13:40:00,
2013-04-08 09:00:00,37.4,32.4,29.74,North,0,5.8,5.8,82,0.00,,,0.31,WUHU216HW,2013-04-08 14:00:00,
2013-04-08 09:05:00,37.3,32.2,29.74,North,0,6.3,6.3,82,0.00,,,0.31,WUHU216HW,2013-04-08 14:05:00,
2013-04-08 09:10:00,37.3,32.2,29.74,North,0,6.3,6.3,82,0.00,,,0.31,WUHU216HW,2013-04-08 14:10:00,
2013-04-08 09:30:00,37.6,32.6,29.74,ENE,68,9.8,9.8,82,0.00,,,0.31,WUHU216HW,2013-04-08 14:30:00,
2013-04-08 09:31:00,37.6,32.6,29.74,ENE,60,9.6,9.8,82,0.00,,,0.31,WUHU216HW,2013-04-08 14:31:00,
2013-04-08 09:35:00,37.6,32.6,29.74,NE,45,9.2,9.8,82,0.00,,,0.31,WUHU216HW,2013-04-08 14:35:00,
2013-04-08 09:36:00,37.6,32.6,29.74,NE,45,9.2,9.8,82,0.00,,,0.31,WUHU216HW,2013-04-08 14:36:00,
2013-04-08 09:37:00,37.6,32.6,29.74,NE,45,9.2,9.8,82,0.00,,,0.31,WUHU216HW,2013-04-08 14:37:00,
2013-04-08 10:00:00,38.2,33.1,29.75,NNE,23,7.4,7.4,82,0.00,,,0.31,WUHU216HW,2013-04-08 15:00:00,
2013-04-08 10:05:00,38.2,33.1,29.75,NE,45,8.7,8.7,82,0.00,,,0.31,WUHU216HW,2013-04-08 15:05:00,
2013-04-08 10:30:00,38.9,33.6,29.75,NE,45,7.6,7.6,81,0.00,,,0.31,WUHU216HW,2013-04-08 15:30:00,
2013-04-08 10:35:00,38.9,33.6,29.75,NE,45,5.4,7.6,81,0.00,,,0.31,WUHU216HW,2013-04-08 15:35:00,
2013-04-08 10:36:00,38.9,33.6,29.75,NE,45,5.4,7.6,81,0.00,,,0.31,WUHU216HW,2013-04-08 15:36:00,
2013-04-08 10:40:00,38.9,33.6,29.75,NE,45,5.4,7.6,81,0.00,,,0.31,WUHU216HW,2013-04-08 15:40:00,
2013-04-08 11:00:00,39.8,34.1,29.76,North,0,5.4,5.4,80,0.00,,,0.31,WUHU216HW,2013-04-08 16:00:00,
2013-04-08 11:05:00,39.8,34.1,29.76,North,0,8.9,8.9,80,0.00,,,0.31,WUHU216HW,2013-04-08 16:05:00,
2013-04-08 11:30:00,40.5,34.8,29.76,NE,45,6.7,6.7,80,0.00,,,0.31,WUHU216HW,2013-04-08 16:30:00,
2013-04-08 11:31:00,40.5,34.8,29.76,NE,45,6.7,6.7,80,0.00,,,0.31,WUHU216HW,2013-04-08 16:31:00,
2013-04-08 11:35:00,40.5,34.8,29.76,NE,45,6.7,6.7,80,0.00,,,0.31,WUHU216HW,2013-04-08 16:35:00,
2013-04-08 11:36:00,40.5,34.8,29.76,NE,45,6.7,6.7,80,0.00,,,0.31,WUHU216HW,2013-04-08 16:36:00,
2013-04-08 11:40:00,40.5,34.8,29.76,NE,45,6.7,6.7,80,0.00,,,0.31,WUHU216HW,2013-04-08 16:40:00,
2013-04-08 12:00:00,42.3,36.2,29.78,North,0,4.5,4.5,79,0.00,,,0.31,WUHU216HW,2013-04-08 17:00:00,
2013-04-08 12:05:00,42.3,36.2,29.78,ENE,68,1.8,4.5,79,0.00,,,0.31,WUHU216HW,2013-04-08 17:05:00,
2013-04-08 12:10:00,42.3,36.2,29.78,ENE,68,1.8,4.5,79,0.00,,,0.31,WUHU216HW,2013-04-08 17:10:00,
2013-04-08 12:30:00,42.1,35.7,29.78,NNE,23,4.9,4.9,78,0.00,,,0.31,WUHU216HW,2013-04-08 17:30:00,
2013-04-08 12:31:00,42.1,35.7,29.78,NE,45,6.0,6.0,78,0.00,,,0.31,WUHU216HW,2013-04-08 17:31:00,
2013-04-08 12:35:00,42.1,35.7,29.78,NE,45,6.0,6.0,78,0.00,,,0.31,WUHU216HW,2013-04-08 17:35:00,
2013-04-08 12:36:00,42.1,35.7,29.78,NE,45,6.0,6.0,78,0.00,,,0.31,WUHU216HW,2013-04-08 17:36:00,
2013-04-08 12:40:00,42.1,35.7,29.78,NE,45,6.0,6.0,78,0.00,,,0.31,WUHU216HW,2013-04-08 17:40:00,
2013-04-08 13:00:00,42.5,36.4,29.78,North,0,9.6,9.6,79,0.00,,,0.31,WUHU216HW,2013-04-08 18:00:00,
2013-04-08 13:05:00,42.3,36.2,29.78,NNE,23,9.2,9.6,79,0.00,,,0.31,WUHU216HW,2013-04-08 18:05:00,
2013-04-08 13:30:00,41.2,35.1,29.80,North,0,9.4,9.4,79,0.00,,,0.31,WUHU216HW,2013-04-08 18:30:00,
2013-04-08 13:35:00,41.2,35.1,29.80,North,0,10.7,10.7,79,0.00,,,0.31,WUHU216HW,2013-04-08 18:35:00,
2013-04-08 13:37:00,41.2,35.1,29.80,North,0,10.7,10.7,79,0.00,,,0.31,WUHU216HW,2013-04-08 18:37:00,
2013-04-08 13:40:00,41.2,35.1,29.80,North,0,10.7,10.7,79,0.00,,,0.31,WUHU216HW,2013-04-08 18:40:00,
2013-04-08 14:00:00,41.2,35.1,29.81,North,0,7.8,7.8,79,0.00,,,0.31,WUHU216HW,2013-04-08 19:00:00,
2013-04-08 14:05:00,41.2,35.1,29.81,NNE,23,6.3,7.8,79,0.00,,,0.31,WUHU216HW,2013-04-08 19:05:00,
2013-04-08 14:07:00,41.2,35.1,29.81,NNE,23,6.3,7.8,79,0.00,,,0.31,WUHU216HW,2013-04-08 19:07:00,
2013-04-08 14:30:00,41.4,35.3,29.81,NNE,23,10.7,10.7,79,0.00,,,0.31,WUHU216HW,2013-04-08 19:30:00,
2013-04-08 14:31:00,41.4,35.3,29.82,North,0,12.5,12.5,79,0.00,,,0.31,WUHU216HW,2013-04-08 19:31:00,
2013-04-08 14:35:00,41.4,35.3,29.82,North,0,12.5,12.5,79,0.00,,,0.31,WUHU216HW,2013-04-08 19:35:00,
2013-04-08 14:36:00,41.4,35.3,29.82,North,0,12.5,12.5,79,0.00,,,0.31,WUHU216HW,2013-04-08 19:36:00,
2013-04-08 14:37:00,41.4,35.3,29.82,North,0,12.5,12.5,79,0.00,,,0.31,WUHU216HW,2013-04-08 19:37:00,
2013-04-08 14:40:00,41.4,35.3,29.82,North,0,12.5,12.5,79,0.00,,,0.31,WUHU216HW,2013-04-08 19:40:00,
2013-04-08 15:00:00,41.4,35.3,29.83,North,0,5.4,5.4,79,0.00,,,0.31,WUHU216HW,2013-04-08 20:00:00,
2013-04-08 15:05:00,41.4,35.3,29.83,North,0,5.4,5.4,79,0.00,,,0.31,WUHU216HW,2013-04-08 20:05:00,
2013-04-08 15:06:00,41.4,35.3,29.83,North,0,5.4,5.4,79,0.00,,,0.31,WUHU216HW,2013-04-08 20:06:00,
2013-04-08 15:30:00,42.5,36.1,29.82,NNE,23,9.2,9.2,78,0.00,,,0.31,WUHU216HW,2013-04-08 20:30:00,
2013-04-08 15:35:00,42.7,36.3,29.82,North,0,9.2,9.2,78,0.00,,,0.31,WUHU216HW,2013-04-08 20:35:00,
2013-04-08 16:00:00,41.8,35.4,29.82,North,0,9.2,9.2,78,0.00,,,0.31,WUHU216HW,2013-04-08 21:00:00,
2013-04-08 16:05:00,41.8,35.4,29.82,North,0,11.4,11.4,78,0.00,,,0.31,WUHU216HW,2013-04-08 21:05:00,
2013-04-08 16:06:00,41.8,35.4,29.82,North,0,11.4,11.4,78,0.00,,,0.31,WUHU216HW,2013-04-08 21:06:00,
2013-04-08 16:10:00,41.8,35.4,29.82,North,0,11.4,11.4,78,0.00,,,0.31,WUHU216HW,2013-04-08 21:10:00,
2013-04-08 16:30:00,41.9,35.6,29.83,North,0,8.5,8.5,78,0.00,,,0.31,WUHU216HW,2013-04-08 21:30:00,
2013-04-08 16:35:00,41.9,35.6,29.83,North,0,8.5,8.5,78,0.00,,,0.31,WUHU216HW,2013-04-08 21:35:00,
2013-04-08 16:40:00,41.9,35.6,29.83,North,0,8.5,8.5,78,0.00,,,0.31,WUHU216HW,2013-04-08 21:40:00,
2013-04-08 17:00:00,41.8,35.4,29.86,North,0,7.4,7.4,78,0.00,,,0.31,WUHU216HW,2013-04-08 22:00:00,
2013-04-08 17:01:00,41.8,35.4,29.86,North,0,7.1,7.4,78,0.00,,,0.31,WUHU216HW,2013-04-08 22:01:00,
2013-04-08 17:05:00,41.8,35.4,29.86,North,0,6.9,7.4,78,0.00,,,0.31,WUHU216HW,2013-04-08 22:05:00,
2013-04-08 17:06:00,41.8,35.4,29.86,North,0,6.9,7.4,78,0.00,,,0.31,WUHU216HW,2013-04-08 22:06:00,
2013-04-08 17:30:00,42.1,35.7,29.87,North,0,11.2,11.2,78,0.00,,,0.31,WUHU216HW,2013-04-08 22:30:00,
2013-04-08 17:35:00,42.1,35.7,29.87,NNW,338,6.3,11.2,78,0.00,,,0.31,WUHU216HW,2013-04-08 22:35:00,
2013-04-08 17:36:00,42.1,35.7,29.87,NNW,338,6.3,11.2,78,0.00,,,0.31,WUHU216HW,2013-04-08 22:36:00,
2013-04-08 17:40:00,42.1,35.7,29.87,NNW,338,6.3,6.3,78,0.00,,,0.31,WUHU216HW,2013-04-08 22:40:00,
2013-04-08 18:00:00,41.9,35.6,29.89,North,0,5.8,5.8,78,0.00,,,0.31,WUHU216HW,2013-04-08 23:00:00,
2013-04-08 18:05:00,41.9,35.6,29.89,North,0,9.8,9.8,78,0.00,,,0.31,WUHU216HW,2013-04-08 23:05:00,
2013-04-08 18:30:00,41.6,35.2,29.92,North,0,7.8,7.8,78,0.00,,,0.31,WUHU216HW,2013-04-08 23:30:00,
2013-04-08 18:35:00,41.6,35.2,29.92,NNE,23,5.6,7.8,78,0.00,,,0.31,WUHU216HW,2013-04-08 23:35:00,
2013-04-08 18:40:00,41.6,35.2,29.92,NNE,23,5.6,7.8,78,0.00,,,0.31,WUHU216HW,2013-04-08 23:40:00,
2013-04-08 19:00:00,41.0,34.9,29.93,NNE,23,12.3,12.3,79,0.00,,,0.31,WUHU216HW,2013-04-09 00:00:00,
2013-04-08 19:05:00,41.0,34.9,29.93,NNE,23,7.4,12.3,79,0.00,,,0.31,WUHU216HW,2013-04-09 00:05:00,
2013-04-08 19:10:00,41.0,34.9,29.93,NNE,23,7.4,12.3,79,0.00,,,0.31,WUHU216HW,2013-04-09 00:10:00,
2013-04-08 19:30:00,40.7,34.7,29.94,NNW,338,8.3,8.3,79,0.00,,,0.31,WUHU216HW,2013-04-09 00:30:00,
2013-04-08 19:35:00,40.7,34.7,29.94,NNW,338,8.3,8.3,79,0.00,,,0.31,WUHU216HW,2013-04-09 00:35:00,
2013-04-08 20:00:00,40.3,34.3,29.96,NE,45,4.7,4.7,79,0.00,,,0.31,WUHU216HW,2013-04-09 01:00:00,
2013-04-08 20:05:00,40.3,34.3,29.96,NNE,23,4.0,4.7,79,0.00,,,0.31,WUHU216HW,2013-04-09 01:05:00,
2013-04-08 20:10:00,40.3,34.3,29.96,NNE,23,4.0,4.0,79,0.00,,,0.31,WUHU216HW,2013-04-09 01:10:00,
2013-04-08 20:30:00,40.1,34.1,29.98,North,0,2.7,2.7,79,0.00,,,0.31,WUHU216HW,2013-04-09 01:30:00,
2013-04-08 20:31:00,40.1,34.1,29.98,North,0,2.7,2.7,79,0.00,,,0.31,WUHU216HW,2013-04-09 01:31:00,
2013-04-08 20:36:00,40.1,34.1,29.98,North,0,2.7,2.7,79,0.00,,,0.31,WUHU216HW,2013-04-09 01:36:00,
2013-04-08 20:37:00,40.1,34.1,29.98,North,0,2.7,2.7,79,0.00,,,0.31,WUHU216HW,2013-04-09 01:37:00,
2013-04-08 20:41:00,40.1,34.1,29.98,North,0,2.7,2.7,79,0.00,,,0.31,WUHU216HW,2013-04-09 01:41:00,
2013-04-08 21:00:00,40.0,33.9,29.99,North,0,5.1,5.1,79,0.00,,,0.31,WUHU216HW,2013-04-09 02:00:00,
2013-04-08 21:05:00,40.0,33.9,29.99,North,0,6.5,7.6,79,0.00,,,0.31,WUHU216HW,2013-04-09 02:05:00,
2013-04-08 21:30:00,39.8,33.9,30.00,NE,45,5.4,5.4,79,0.00,,,0.31,WUHU216HW,2013-04-09 02:30:00,
2013-04-08 21:31:00,39.8,33.9,30.00,NE,45,5.4,5.4,79,0.00,,,0.31,WUHU216HW,2013-04-09 02:31:00,
2013-04-08 21:32:00,39.8,33.9,30.00,NE,45,5.4,5.4,79,0.00,,,0.31,WUHU216HW,2013-04-09 02:32:00,
2013-04-08 21:33:00,39.8,33.9,30.00,NE,45,5.4,5.4,79,0.00,,,0.31,WUHU216HW,2013-04-09 02:33:00,
2013-04-08 21:35:00,39.8,33.9,30.00,NE,45,5.4,5.4,79,0.00,,,0.31,WUHU216HW,2013-04-09 02:35:00,
2013-04-08 21:37:00,39.8,33.9,30.00,NE,45,5.4,5.4,79,0.00,,,0.31,WUHU216HW,2013-04-09 02:37:00,
2013-04-08 21:38:00,39.8,33.9,30.00,NE,45,5.4,5.4,79,0.00,,,0.31,WUHU216HW,2013-04-09 02:38:00,
2013-04-08 22:00:00,39.4,33.5,29.99,NNE,23,2.0,2.0,79,0.00,,,0.31,WUHU216HW,2013-04-09 03:00:00,
2013-04-08 22:05:00,39.4,33.5,29.99,NNE,23,3.1,3.1,79,0.00,,,0.31,WUHU216HW,2013-04-09 03:05:00,
2013-04-08 22:10:00,39.4,33.5,29.99,NNE,23,3.1,3.1,79,0.00,,,0.31,WUHU216HW,2013-04-09 03:10:00,
2013-04-08 22:30:00,39.1,33.1,29.98,NNE,23,7.2,7.2,79,0.00,,,0.31,WUHU216HW,2013-04-09 03:30:00,
2013-04-08 22:35:00,39.1,33.1,29.98,NE,45,8.3,8.3,79,0.00,,,0.31,WUHU216HW,2013-04-09 03:35:00,
2013-04-08 22:40:00,39.1,33.1,29.98,NE,45,8.3,8.3,79,0.00,,,0.31,WUHU216HW,2013-04-09 03:40:00,
2013-04-08 23:00:00,38.7,32.8,30.01,North,0,4.3,4.3,79,0.00,,,0.31,WUHU216HW,2013-04-09 04:00:00,
2013-04-08 23:05:00,38.7,32.8,30.01,NNW,338,4.0,4.3,79,0.00,,,0.31,WUHU216HW,2013-04-09 04:05:00,
2013-04-08 23:10:00,38.7,32.8,30.01,NNW,338,4.0,4.0,79,0.00,,,0.31,WUHU216HW,2013-04-09 04:10:00,
2013-04-08 23:30:00,39.2,33.3,30.04,NW,315,3.1,3.1,79,0.00,,,0.31,WUHU216HW,2013-04-09 04:30:00,
2013-04-08 23:35:00,39.2,33.3,30.04,North,0,1.8,3.1,79,0.00,,,0.31,WUHU216HW,2013-04-09 04:35:00,
2013-04-08 23:36:00,39.2,33.3,30.04,North,0,1.8,3.1,79,0.00,,,0.31,WUHU216HW,2013-04-09 04:36:00,